Flight Track Log - Related Links

Times and Time Zones

All times are in EDT time to prevent confusion due to time zone crossing. See the KAP313 flight status page for this flight to view local times or setup timezone preferences in your user account.

Time Position Orientation Groundspeed Altitude Reporting Facility
EDT Latitude Longitude Course Direction KTS MPH feet Rate Location/Type
Sun 12:23:45 PM 42.3667 -71.0500 39° Northeast 111 128 1,200  Level KA90
Sun 12:24:45 PM 42.3833 -71.1000 294° West 117 135 1,700 550 Climbing KA90
Sun 12:25:45 PM 42.3833 -71.1333 270° West 112 129 2,300 550 Climbing KA90
Sun 12:26:45 PM 42.4000 -71.1667 304° West 122 140 2,800 600 Climbing KA90
Sun 12:27:45 PM 42.4500 -71.1833 346° North 132 152 3,500 650 Climbing KA90
Sun 12:28:45 PM 42.4833 -71.1667 20° North 130 150 4,100 524 Climbing KA90
Sun 12:29:00 PM 42.5476 -70.8057 39° Northeast  Level Estimated
Sun 12:29:51 PM 42.5167 -71.1333 36° Northeast 133 153 4,600  Level KA90
Sun 12:30:51 PM 42.5500 -71.1167 20° North 142 163 5,000 211 Climbing KA90
Sun 12:31:45 PM 42.5833 -71.1000 20° North 168 193 5,000  Level KA90
Sun 12:32:46 PM 42.6333 -71.0833 14° North 176 203 5,000  Level KA90
Sun 12:33:46 PM 42.6833 -71.0500 26° Northeast 178 205 5,000  Level KA90
Sun 12:34:46 PM 42.7167 -71.0333 20° North 175 201 5,000  Level KA90
Sun 12:35:51 PM 42.7667 -70.9667 44° Northeast 174 200 5,000  Level KA90
Sun 12:36:46 PM 42.7833 -70.9333 56° Northeast 177 204 5,000  Level KA90
Sun 12:37:46 PM 42.8333 -70.8833 36° Northeast 176 203 5,000  Level KA90
Sun 12:38:46 PM 42.8667 -70.8333 48° Northeast 174 200 5,000  Level KA90
Sun 12:39:52 PM 42.9000 -70.7833 48° Northeast 176 203 5,000  Level KA90
Sun 12:40:52 PM 42.9333 -70.7333 48° Northeast 174 200 5,000 53 Level KA90
Sun 12:41:46 PM 42.9667 -70.6833 48° Northeast 173 199 5,100 111 Climbing KA90
Sun 12:43:00 PM 42.9957 -70.6424 46° Northeast  Level Estimated
Sun 12:50:00 PM 43.1601 -70.4094 46° Northeast  Level Estimated
Sun 12:51:00 PM 43.1836 -70.3760 46° Northeast  Level Estimated
Sun 12:52:00 PM 43.2071 -70.3426 46° Northeast  Level Estimated
Sun 12:53:00 PM 43.2305 -70.3092 46° Northeast  Level Estimated
Sun 12:54:00 PM 43.2539 -70.2757 46° Northeast  Level Estimated
Sun 12:55:00 PM 43.2774 -70.2422 46° Northeast  Level Estimated
Sun 12:56:00 PM 43.3008 -70.2087 46° Northeast  Level Estimated
Sun 12:57:00 PM 43.3242 -70.1752 46° Northeast  Level Estimated
Sun 12:58:00 PM 43.3475 -70.1416 46° Northeast  Level Estimated
Sun 12:59:00 PM 43.3709 -70.1080 46° Northeast  Level Estimated
Sun 01:00:00 PM 43.3943 -70.0744 46° Northeast  Level Estimated
Sun 01:01:00 PM 43.4177 -70.0407 46° Northeast  Level Estimated
Sun 01:02:00 PM 43.4410 -70.0071 46° Northeast  Level Estimated
Sun 01:03:00 PM 43.4644 -69.9734 46° Northeast  Level Estimated
Sun 01:04:00 PM 43.4877 -69.9397 46° Northeast  Level Estimated
Sun 01:05:00 PM 43.5110 -69.9059 46° Northeast  Level Estimated
Sun 01:06:00 PM 43.5343 -69.8721 46° Northeast  Level Estimated
Sun 01:07:00 PM 43.5576 -69.8383 46° Northeast  Level Estimated
Sun 01:08:00 PM 43.5809 -69.8045 46° Northeast  Level Estimated
Sun 01:09:00 PM 43.6042 -69.7707 46° Northeast  Level Estimated
Sun 01:10:00 PM 43.6274 -69.7368 46° Northeast  Level Estimated
Sun 01:11:00 PM 43.6507 -69.7029 47° Northeast  Level Estimated
Sun 01:12:00 PM 43.6740 -69.6689 47° Northeast  Level Estimated
Sun 01:13:00 PM 43.6972 -69.6350 47° Northeast  Level Estimated

Login

Don't have an account? Register now (free) for customized features, flight alerts, and more!